Time;durP1;ratioP1;P1;durP2;ratioP2;P2;SDS_P1;SDS_P2;PMS_P1;PMS_P2;Temp;Humidity;BMP_temperature;BMP_pressure;BME280_temperature;BME280_humidity;BME280_pressure;Samples;Min_cycle;Max_cycle;Signal;HPM_P1;HPM_P2
2020/12/04 00:02:17;;;;;;;47.57;34.67;;;;;;;;;;5055398;28;20480;-83
2020/12/04 00:04:43;;;;;;;47.95;34.80;;;;;;;;;;5073189;28;20369;-83
2020/12/04 00:07:09;;;;;;;48.85;35.08;;;;;;;;;;5055281;28;20362;-83
2020/12/04 00:09:35;;;;;;;47.70;35.63;;;;;;;;;;5054825;28;20500;-83
2020/12/04 00:12:01;;;;;;;48.72;35.15;;;;;;;;;;5072904;28;20370;-83
2020/12/04 00:14:27;;;;;;;49.83;36.15;;;;;;;;;;5055031;28;20385;-83
2020/12/04 00:16:53;;;;;;;48.88;35.67;;;;;;;;;;5055127;28;20919;-83
2020/12/04 00:19:19;;;;;;;48.85;35.88;;;;;;;;;;5072802;28;20713;-82
2020/12/04 00:21:49;;;;;;;49.83;35.65;;;;;;;;;;5072723;28;20362;-83
2020/12/04 00:24:15;;;;;;;48.55;35.45;;;;;;;;;;5054996;28;20457;-83
2020/12/04 00:26:41;;;;;;;51.90;36.40;;;;;;;;;;5072804;28;20799;-83
2020/12/04 00:29:07;;;;;;;48.30;36.45;;;;;;;;;;5072649;28;20362;-83
2020/12/04 00:31:33;;;;;;;49.40;37.33;;;;;;;;;;5072593;28;20358;-82
2020/12/04 00:33:59;;;;;;;52.60;37.35;;;;;;;;;;5054461;28;20370;-83
2020/12/04 00:36:28;;;;;;;49.78;36.38;;;;;;;;;;5054628;28;20369;-82
2020/12/04 00:38:54;;;;;;;50.20;37.10;;;;;;;;;;5072821;28;20444;-83
2020/12/04 00:41:20;;;;;;;54.47;36.50;;;;;;;;;;5054614;28;20929;-83
2020/12/04 00:43:46;;;;;;;49.25;34.97;;;;;;;;;;5054587;28;20390;-83
2020/12/04 00:46:12;;;;;;;47.73;35.33;;;;;;;;;;5054461;28;20381;-83
2020/12/04 00:48:38;;;;;;;49.80;36.08;;;;;;;;;;5071761;28;20367;-83
2020/12/04 00:51:04;;;;;;;51.53;36.38;;;;;;;;;;5053936;28;20371;-83
2020/12/04 00:53:30;;;;;;;48.83;34.95;;;;;;;;;;5072134;28;20836;-83
2020/12/04 00:55:57;;;;;;;51.22;36.17;;;;;;;;;;5072333;28;20757;-83
2020/12/04 00:58:23;;;;;;;48.97;35.93;;;;;;;;;;5054387;28;20370;-83
2020/12/04 01:00:49;;;;;;;50.55;36.25;;;;;;;;;;5072021;28;20717;-82
2020/12/04 01:03:15;;;;;;;49.83;36.00;;;;;;;;;;5054084;28;20475;-83
2020/12/04 01:05:41;;;;;;;51.92;37.10;;;;;;;;;;5071837;28;20362;-83
2020/12/04 01:08:07;;;;;;;52.73;36.20;;;;;;;;;;5054028;28;20396;-83
2020/12/04 01:10:33;;;;;;;50.03;35.85;;;;;;;;;;5054129;28;20857;-82
2020/12/04 01:12:59;;;;;;;52.90;37.75;;;;;;;;;;5059064;28;20401;-82
2020/12/04 01:15:25;;;;;;;51.30;35.67;;;;;;;;;;5077845;28;20354;-83
2020/12/04 01:17:51;;;;;;;52.17;36.90;;;;;;;;;;5072287;28;20445;-83
2020/12/04 01:20:17;;;;;;;51.13;37.63;;;;;;;;;;5054232;28;20500;-83
2020/12/04 01:22:43;;;;;;;52.28;37.40;;;;;;;;;;5073436;28;20398;-83
2020/12/04 01:25:09;;;;;;;49.92;36.22;;;;;;;;;;5075236;28;20362;-83
2020/12/04 01:27:35;;;;;;;52.00;36.65;;;;;;;;;;5078441;28;20358;-83
2020/12/04 01:30:01;;;;;;;50.92;36.53;;;;;;;;;;5054599;28;20568;-83
2020/12/04 01:32:27;;;;;;;51.42;37.33;;;;;;;;;;5053861;28;20370;-83
2020/12/04 01:34:53;;;;;;;48.33;35.90;;;;;;;;;;5053358;28;20903;-82
2020/12/04 01:37:19;;;;;;;49.15;35.10;;;;;;;;;;5071485;28;20364;-83
2020/12/04 01:39:45;;;;;;;50.17;36.10;;;;;;;;;;5071121;28;20382;-83
2020/12/04 01:42:11;;;;;;;50.75;36.72;;;;;;;;;;5053271;28;20789;-83
2020/12/04 01:44:37;;;;;;;50.43;37.17;;;;;;;;;;5053425;28;20369;-83
2020/12/04 01:47:03;;;;;;;50.08;36.75;;;;;;;;;;5053359;28;20488;-83
2020/12/04 01:49:29;;;;;;;50.93;36.33;;;;;;;;;;5052999;28;20733;-83
2020/12/04 01:51:55;;;;;;;49.88;35.58;;;;;;;;;;5053200;28;20385;-82
2020/12/04 01:54:21;;;;;;;49.47;36.35;;;;;;;;;;5071143;28;20355;-83
2020/12/04 01:56:48;;;;;;;49.78;35.72;;;;;;;;;;5071032;28;20355;-82
2020/12/04 01:59:14;;;;;;;49.23;36.10;;;;;;;;;;5070726;28;20396;-83
2020/12/04 02:01:42;;;;;;;51.88;36.80;;;;;;;;;;5052183;28;20376;-83
2020/12/04 02:04:10;;;;;;;50.75;36.03;;;;;;;;;;5070920;28;20363;-83
2020/12/04 02:06:47;;;;;;;49.22;36.00;;;;;;;;;;5071198;28;20393;-83
2020/12/04 02:09:18;;;;;;;49.08;35.83;;;;;;;;;;5070843;28;20362;-82
2020/12/04 02:11:46;;;;;;;48.27;35.07;;;;;;;;;;5070996;28;20458;-83
2020/12/04 02:14:13;;;;;;;49.08;35.60;;;;;;;;;;5052677;28;20373;-83
2020/12/04 02:16:43;;;;;;;48.47;35.60;;;;;;;;;;5070608;28;20365;-83
2020/12/04 02:19:09;;;;;;;51.45;36.50;;;;;;;;;;5053451;28;20358;-83
2020/12/04 02:21:35;;;;;;;45.72;33.97;;;;;;;;;;5070679;28;20359;-83
2020/12/04 02:24:01;;;;;;;46.78;35.30;;;;;;;;;;5070670;28;20736;-84
2020/12/04 02:26:27;;;;;;;48.03;35.45;;;;;;;;;;5071091;28;20876;-84
2020/12/04 02:28:54;;;;;;;47.63;34.47;;;;;;;;;;5070650;28;20361;-82
2020/12/04 02:31:23;;;;;;;53.97;36.13;;;;;;;;;;5070292;28;20354;-83
2020/12/04 02:33:49;;;;;;;49.58;35.85;;;;;;;;;;5052822;28;20366;-83
2020/12/04 02:36:15;;;;;;;49.70;34.60;;;;;;;;;;5070782;28;20396;-82
2020/12/04 02:38:42;;;;;;;48.33;35.72;;;;;;;;;;5070475;28;20370;-83
2020/12/04 02:41:08;;;;;;;49.67;35.55;;;;;;;;;;5070372;28;20393;-82
2020/12/04 02:43:34;;;;;;;45.10;33.58;;;;;;;;;;5070441;28;20741;-82
2020/12/04 02:46:01;;;;;;;47.75;35.85;;;;;;;;;;5070545;28;20393;-83
2020/12/04 02:48:27;;;;;;;45.53;34.63;;;;;;;;;;5052725;28;20373;-83
2020/12/04 02:50:53;;;;;;;46.72;34.70;;;;;;;;;;5070454;28;20362;-82
2020/12/04 02:53:19;;;;;;;48.03;35.03;;;;;;;;;;5052576;28;20771;-83
2020/12/04 02:55:45;;;;;;;48.03;36.00;;;;;;;;;;5053003;28;20366;-83
2020/12/04 02:58:11;;;;;;;50.25;36.95;;;;;;;;;;5052785;28;20405;-82
2020/12/04 03:00:37;;;;;;;49.53;37.25;;;;;;;;;;5070332;28;20351;-82
2020/12/04 03:03:03;;;;;;;50.10;37.40;;;;;;;;;;5070521;28;20460;-82
2020/12/04 03:05:29;;;;;;;48.70;37.17;;;;;;;;;;5052759;28;20860;-83
2020/12/04 03:07:55;;;;;;;51.10;38.30;;;;;;;;;;5052836;28;20359;-83
2020/12/04 03:10:21;;;;;;;50.35;37.63;;;;;;;;;;5070502;28;20381;-82
2020/12/04 03:12:47;;;;;;;52.37;39.13;;;;;;;;;;5055415;28;20464;-83
2020/12/04 03:15:12;;;;;;;54.20;40.58;;;;;;;;;;5056386;28;20362;-83
2020/12/04 03:17:39;;;;;;;53.92;39.72;;;;;;;;;;5074336;28;20366;-83
2020/12/04 03:20:05;;;;;;;55.05;41.28;;;;;;;;;;5074113;28;20360;-83
2020/12/04 03:22:31;;;;;;;56.30;41.50;;;;;;;;;;5073843;28;20433;-83
2020/12/04 03:24:57;;;;;;;52.80;40.22;;;;;;;;;;5056142;28;20377;-83
2020/12/04 03:27:23;;;;;;;55.20;41.72;;;;;;;;;;5074303;28;20362;-83
2020/12/04 03:29:49;;;;;;;56.13;42.40;;;;;;;;;;5073793;28;20370;-83
2020/12/04 03:32:15;;;;;;;55.47;40.80;;;;;;;;;;5056171;28;20369;-83
2020/12/04 03:34:42;;;;;;;57.50;42.60;;;;;;;;;;5074249;28;20379;-83
2020/12/04 03:37:08;;;;;;;56.65;42.42;;;;;;;;;;5074057;28;20382;-82
2020/12/04 03:39:35;;;;;;;56.88;42.63;;;;;;;;;;5055884;28;20355;-83
2020/12/04 03:42:01;;;;;;;60.58;43.65;;;;;;;;;;5074114;28;20463;-83
2020/12/04 03:44:27;;;;;;;55.25;43.63;;;;;;;;;;5074156;28;20794;-82
2020/12/04 03:46:53;;;;;;;58.17;43.33;;;;;;;;;;5073856;28;20452;-83
2020/12/04 03:49:19;;;;;;;57.40;43.33;;;;;;;;;;5073697;28;20369;-83
2020/12/04 03:51:45;;;;;;;54.95;42.55;;;;;;;;;;5073477;28;20389;-83
2020/12/04 03:54:12;;;;;;;58.00;43.95;;;;;;;;;;5055416;28;20366;-83
2020/12/04 03:56:38;;;;;;;59.03;44.13;;;;;;;;;;5073698;28;20907;-83
2020/12/04 03:59:04;;;;;;;58.42;43.63;;;;;;;;;;5073103;28;20419;-84
2020/12/04 04:01:31;;;;;;;56.57;42.70;;;;;;;;;;5073532;28;20737;-83
2020/12/04 04:03:57;;;;;;;59.22;44.33;;;;;;;;;;5073715;28;20394;-82
2020/12/04 04:06:23;;;;;;;56.33;42.83;;;;;;;;;;5073814;28;20449;-83
2020/12/04 04:08:49;;;;;;;56.00;42.83;;;;;;;;;;5055593;28;20384;-83
2020/12/04 04:11:15;;;;;;;58.03;44.03;;;;;;;;;;5073325;28;20354;-83
2020/12/04 04:13:41;;;;;;;57.93;42.37;;;;;;;;;;5078017;28;20373;-83
2020/12/04 04:16:07;;;;;;;58.05;43.13;;;;;;;;;;5074065;28;20899;-83
2020/12/04 04:18:33;;;;;;;60.35;44.13;;;;;;;;;;5055486;28;20454;-83
2020/12/04 04:21:00;;;;;;;56.67;43.17;;;;;;;;;;5072920;28;20355;-83
2020/12/04 04:23:26;;;;;;;58.45;43.45;;;;;;;;;;5054328;28;20422;-83
2020/12/04 04:25:52;;;;;;;59.07;43.50;;;;;;;;;;5073362;28;20397;-83
2020/12/04 04:28:19;;;;;;;56.13;42.55;;;;;;;;;;5055349;28;20460;-83
2020/12/04 04:30:44;;;;;;;58.67;43.33;;;;;;;;;;5073464;28;20358;-82
2020/12/04 04:33:11;;;;;;;57.42;43.42;;;;;;;;;;5073017;28;20362;-83
2020/12/04 04:35:37;;;;;;;56.13;43.25;;;;;;;;;;5054846;28;20432;-83
2020/12/04 04:38:04;;;;;;;58.60;42.58;;;;;;;;;;5055572;28;20424;-84
2020/12/04 04:40:30;;;;;;;56.40;43.08;;;;;;;;;;5054989;28;20366;-83
2020/12/04 04:43:09;;;;;;;56.80;43.10;;;;;;;;;;5055176;28;20483;-83
2020/12/04 04:45:36;;;;;;;58.15;43.10;;;;;;;;;;5074514;28;20365;-83
2020/12/04 04:48:05;;;;;;;56.40;42.35;;;;;;;;;;5073204;28;20365;-84
2020/12/04 04:50:33;;;;;;;55.90;42.45;;;;;;;;;;5056325;28;20385;-84
2020/12/04 04:52:59;;;;;;;53.57;40.53;;;;;;;;;;5061186;28;20366;-84
2020/12/04 04:55:25;;;;;;;50.97;39.97;;;;;;;;;;5057852;28;20717;-83
2020/12/04 04:57:51;;;;;;;54.45;41.78;;;;;;;;;;5073510;28;20350;-83
2020/12/04 05:00:21;;;;;;;54.10;41.30;;;;;;;;;;5073305;28;20374;-83
2020/12/04 05:02:47;;;;;;;53.65;41.15;;;;;;;;;;5059679;28;20398;-83
2020/12/04 05:05:13;;;;;;;56.08;42.35;;;;;;;;;;5062254;28;20370;-83
2020/12/04 05:07:39;;;;;;;53.80;41.22;;;;;;;;;;5078241;28;20354;-82
2020/12/04 05:10:11;;;;;;;56.03;41.03;;;;;;;;;;5073005;28;20411;-83
2020/12/04 05:12:38;;;;;;;52.03;40.83;;;;;;;;;;5072597;28;20366;-83
2020/12/04 05:15:23;;;;;;;53.07;40.77;;;;;;;;;;5071935;28;20362;-83
2020/12/04 05:18:08;;;;;;;56.40;41.85;;;;;;;;;;5054156;28;20398;-83
2020/12/04 05:20:34;;;;;;;58.63;42.53;;;;;;;;;;5071661;28;20396;-83
2020/12/04 05:23:03;;;;;;;55.55;41.53;;;;;;;;;;5071978;28;20386;-82
2020/12/04 05:25:40;;;;;;;57.42;42.55;;;;;;;;;;5071856;28;20358;-82
2020/12/04 05:28:17;;;;;;;56.88;42.20;;;;;;;;;;5071555;28;20366;-83
2020/12/04 05:30:45;;;;;;;56.38;41.67;;;;;;;;;;5071864;28;20378;-83
2020/12/04 05:33:11;;;;;;;54.83;41.43;;;;;;;;;;5054269;28;20374;-83
2020/12/04 05:35:37;;;;;;;56.55;43.13;;;;;;;;;;5071807;28;20374;-82
2020/12/04 05:38:06;;;;;;;55.95;41.22;;;;;;;;;;5053755;28;20362;-83
2020/12/04 05:40:33;;;;;;;55.95;42.22;;;;;;;;;;5071966;28;20853;-83
2020/12/04 05:42:59;;;;;;;59.27;42.70;;;;;;;;;;5053402;28;20393;-83
2020/12/04 05:45:29;;;;;;;57.30;42.95;;;;;;;;;;5052631;28;20725;-92
2020/12/04 05:48:01;;;;;;;56.08;42.00;;;;;;;;;;5041748;28;20391;-87
2020/12/04 05:50:30;;;;;;;58.30;43.30;;;;;;;;;;5050019;28;20372;-83
2020/12/04 05:52:56;;;;;;;57.97;42.85;;;;;;;;;;5042651;28;20374;-84
2020/12/04 05:55:23;;;;;;;54.00;41.05;;;;;;;;;;5064390;28;20388;-84
2020/12/04 05:57:56;;;;;;;56.50;42.45;;;;;;;;;;5045440;28;20447;-84
2020/12/04 06:00:22;;;;;;;57.95;42.88;;;;;;;;;;5065371;28;20363;-84
2020/12/04 06:02:57;;;;;;;57.07;42.70;;;;;;;;;;5042698;28;20516;-84
2020/12/04 06:05:25;;;;;;;57.83;42.47;;;;;;;;;;5062167;28;20370;-84
2020/12/04 06:08:17;;;;;;;58.92;42.85;;;;;;;;;;5066308;28;20376;-90
2020/12/04 06:10:43;;;;;;;54.33;42.55;;;;;;;;;;5045557;28;20446;-84
2020/12/04 06:13:20;;;;;;;57.80;43.42;;;;;;;;;;5040688;28;20396;-84
2020/12/04 06:15:48;;;;;;;55.95;41.92;;;;;;;;;;5045555;28;20368;-83
2020/12/04 06:18:29;;;;;;;67.80;42.95;;;;;;;;;;5064685;28;20373;-84
2020/12/04 06:20:55;;;;;;;55.72;42.55;;;;;;;;;;5051612;28;20383;-82
2020/12/04 06:23:21;;;;;;;60.03;41.75;;;;;;;;;;5060405;28;20511;-83
2020/12/04 06:25:55;;;;;;;57.38;43.60;;;;;;;;;;5039733;28;20454;-83
2020/12/04 06:28:40;;;;;;;54.90;41.67;;;;;;;;;;5038748;28;20785;-83
2020/12/04 06:31:08;;;;;;;53.83;40.47;;;;;;;;;;5044447;28;20489;-82
2020/12/04 06:33:38;;;;;;;54.58;41.40;;;;;;;;;;5062021;28;20871;-84
2020/12/04 06:36:05;;;;;;;54.88;41.72;;;;;;;;;;5043076;28;20388;-83
2020/12/04 06:38:34;;;;;;;55.10;41.72;;;;;;;;;;5055000;28;20362;-83
2020/12/04 06:41:21;;;;;;;54.35;41.42;;;;;;;;;;5066238;28;20368;-83
2020/12/04 06:43:47;;;;;;;56.70;40.58;;;;;;;;;;5042503;28;20918;-83
2020/12/04 06:46:36;;;;;;;53.92;41.40;;;;;;;;;;5048321;28;20376;-83
2020/12/04 06:49:10;;;;;;;52.10;40.65;;;;;;;;;;5043485;28;20441;-82
2020/12/04 06:51:37;;;;;;;53.92;40.03;;;;;;;;;;5043380;28;20395;-83
2020/12/04 06:54:03;;;;;;;52.33;39.33;;;;;;;;;;5066993;28;20360;-82
2020/12/04 06:56:29;;;;;;;52.47;40.45;;;;;;;;;;5068631;28;20367;-85
2020/12/04 06:58:55;;;;;;;55.05;39.80;;;;;;;;;;5049080;28;20383;-84
2020/12/04 07:01:21;;;;;;;54.07;40.47;;;;;;;;;;5044069;28;20403;-84
2020/12/04 07:03:48;;;;;;;55.90;41.00;;;;;;;;;;5027854;28;20805;-85
2020/12/04 07:06:29;;;;;;;64.00;49.20;;;;;;;;;;5048517;28;20372;-87
2020/12/04 07:09:03;;;;;;;53.05;39.97;;;;;;;;;;5056868;28;20366;-86
2020/12/04 07:11:29;;;;;;;70.93;55.35;;;;;;;;;;5042654;28;20382;-82
2020/12/04 07:13:55;;;;;;;58.63;40.60;;;;;;;;;;5047071;28;20462;-83
2020/12/04 07:16:22;;;;;;;58.23;46.77;;;;;;;;;;5048951;28;20468;-84
2020/12/04 07:18:55;;;;;;;53.22;42.30;;;;;;;;;;5063791;28;20362;-83
2020/12/04 07:21:21;;;;;;;48.95;38.55;;;;;;;;;;5063162;28;20448;-83
2020/12/04 07:23:47;;;;;;;73.68;40.67;;;;;;;;;;5062464;28;20403;-84
2020/12/04 07:26:17;;;;;;;49.57;38.07;;;;;;;;;;5044412;28;20895;-81
2020/12/04 07:28:44;;;;;;;50.03;40.05;;;;;;;;;;5062538;28;20466;-82
2020/12/04 07:31:14;;;;;;;49.88;38.42;;;;;;;;;;5046117;28;20760;-81
2020/12/04 07:33:49;;;;;;;48.38;38.00;;;;;;;;;;5065297;28;20477;-80
2020/12/04 07:36:15;;;;;;;47.72;37.00;;;;;;;;;;5066289;28;20431;-81
2020/12/04 07:38:57;;;;;;;45.83;36.80;;;;;;;;;;5062374;28;20368;-82
2020/12/04 07:41:24;;;;;;;46.47;36.07;;;;;;;;;;5061325;28;20795;-82
2020/12/04 07:43:50;;;;;;;53.30;42.65;;;;;;;;;;5062501;28;20437;-83
2020/12/04 07:46:20;;;;;;;49.53;35.38;;;;;;;;;;5045134;28;20479;-84
2020/12/04 07:49:22;;;;;;;42.10;35.05;;;;;;;;;;5063235;28;20453;-83
2020/12/04 07:51:50;;;;;;;44.33;35.20;;;;;;;;;;5015518;28;20386;-83
2020/12/04 07:54:20;;;;;;;43.72;34.88;;;;;;;;;;5062076;28;20426;-83
2020/12/04 07:56:53;;;;;;;43.45;34.40;;;;;;;;;;5046027;28;20417;-83
2020/12/04 07:59:29;;;;;;;42.28;34.40;;;;;;;;;;5045221;28;20366;-82
2020/12/04 08:01:55;;;;;;;42.95;35.28;;;;;;;;;;5060976;28;20370;-83
2020/12/04 08:04:21;;;;;;;55.92;34.95;;;;;;;;;;5060970;28;20363;-82
2020/12/04 08:06:47;;;;;;;42.15;34.17;;;;;;;;;;5061263;28;20398;-84
2020/12/04 08:09:15;;;;;;;81.22;35.40;;;;;;;;;;5062026;28;20932;-84
2020/12/04 08:12:01;;;;;;;42.30;34.70;;;;;;;;;;5065949;28;20350;-84
2020/12/04 08:14:28;;;;;;;40.25;33.50;;;;;;;;;;5046490;28;20376;-84
2020/12/04 08:16:58;;;;;;;40.67;33.17;;;;;;;;;;5061971;28;20363;-84
2020/12/04 08:19:28;;;;;;;39.53;32.13;;;;;;;;;;5045151;28;20946;-84
2020/12/04 08:21:58;;;;;;;40.25;32.85;;;;;;;;;;5058881;28;20386;-83
2020/12/04 08:24:25;;;;;;;38.15;30.75;;;;;;;;;;5061329;28;20482;-82
2020/12/04 08:27:00;;;;;;;37.90;30.05;;;;;;;;;;5061869;28;20870;-82
2020/12/04 08:29:26;;;;;;;36.25;29.83;;;;;;;;;;5061200;28;20391;-82
2020/12/04 08:32:05;;;;;;;37.10;28.90;;;;;;;;;;5063863;28;20374;-83
2020/12/04 08:34:31;;;;;;;37.78;29.98;;;;;;;;;;5063422;28;20385;-84
2020/12/04 08:36:58;;;;;;;34.93;29.07;;;;;;;;;;5060481;28;20444;-83
2020/12/04 08:39:33;;;;;;;33.40;28.80;;;;;;;;;;5041930;28;20394;-83
2020/12/04 08:42:09;;;;;;;36.03;27.75;;;;;;;;;;5067005;28;20380;-81
2020/12/04 08:44:35;;;;;;;62.13;29.70;;;;;;;;;;5069882;28;20370;-82
2020/12/04 08:47:01;;;;;;;35.08;28.90;;;;;;;;;;5041549;28;20429;-82
2020/12/04 08:49:27;;;;;;;31.85;26.92;;;;;;;;;;5061824;28;20423;-82
2020/12/04 08:51:54;;;;;;;33.78;29.15;;;;;;;;;;5061396;28;20916;-86
2020/12/04 08:54:20;;;;;;;32.17;27.53;;;;;;;;;;5044497;28;20464;-82
2020/12/04 08:56:52;;;;;;;30.83;27.10;;;;;;;;;;5059653;28;20355;-84
2020/12/04 08:59:18;;;;;;;34.28;26.73;;;;;;;;;;5043786;28;20370;-82
2020/12/04 09:01:44;;;;;;;33.03;27.40;;;;;;;;;;5064366;28;20374;-81
2020/12/04 09:04:10;;;;;;;29.88;25.33;;;;;;;;;;5048726;28;20768;-81
2020/12/04 09:06:36;;;;;;;31.63;25.58;;;;;;;;;;5063256;28;20750;-81
2020/12/04 09:09:02;;;;;;;29.63;25.30;;;;;;;;;;5046605;28;20470;-81
2020/12/04 09:11:32;;;;;;;30.40;26.67;;;;;;;;;;5060189;28;20366;-82
2020/12/04 09:13:58;;;;;;;34.88;26.20;;;;;;;;;;5059255;28;20391;-81
2020/12/04 09:16:24;;;;;;;32.38;26.15;;;;;;;;;;5043481;28;20371;-80
2020/12/04 09:18:50;;;;;;;33.25;26.17;;;;;;;;;;5060615;28;20717;-79
2020/12/04 09:21:15;;;;;;;30.45;25.65;;;;;;;;;;5060698;28;20447;-79
2020/12/04 09:23:41;;;;;;;27.80;24.23;;;;;;;;;;5059024;28;20402;-81
2020/12/04 09:26:07;;;;;;;29.52;24.48;;;;;;;;;;5060843;28;20362;-80
2020/12/04 09:28:33;;;;;;;28.73;24.53;;;;;;;;;;5060413;28;20383;-80
2020/12/04 09:30:59;;;;;;;30.52;25.25;;;;;;;;;;5058769;28;20359;-79
2020/12/04 09:33:25;;;;;;;28.38;24.50;;;;;;;;;;5061117;28;20416;-79
2020/12/04 09:35:51;;;;;;;28.90;24.65;;;;;;;;;;5059496;28;20389;-79
2020/12/04 09:38:17;;;;;;;30.27;24.90;;;;;;;;;;5060671;28;20364;-79
2020/12/04 09:40:43;;;;;;;38.13;24.95;;;;;;;;;;5042128;28;20493;-80
2020/12/04 09:43:09;;;;;;;42.83;25.27;;;;;;;;;;5043152;28;20726;-80
2020/12/04 09:45:35;;;;;;;35.72;23.92;;;;;;;;;;5042904;28;20377;-80
2020/12/04 09:48:01;;;;;;;30.00;24.42;;;;;;;;;;5043132;28;20635;-80
2020/12/04 09:50:27;;;;;;;29.10;24.77;;;;;;;;;;5058890;28;20375;-80
2020/12/04 09:52:53;;;;;;;28.33;24.52;;;;;;;;;;5058889;28;20369;-77
2020/12/04 09:55:19;;;;;;;30.42;25.67;;;;;;;;;;5060843;28;20361;-82
2020/12/04 09:57:45;;;;;;;30.43;25.40;;;;;;;;;;5040647;28;20847;-80
2020/12/04 10:00:11;;;;;;;29.10;24.23;;;;;;;;;;5038420;28;20657;-80
2020/12/04 10:02:37;;;;;;;28.38;24.50;;;;;;;;;;5060249;28;20394;-80
2020/12/04 10:05:04;;;;;;;28.65;24.60;;;;;;;;;;5060102;28;20400;-79
2020/12/04 10:07:30;;;;;;;29.65;24.67;;;;;;;;;;5058983;28;20354;-81
2020/12/04 10:09:56;;;;;;;28.55;24.90;;;;;;;;;;5060184;28;20458;-80
2020/12/04 10:12:22;;;;;;;28.65;25.02;;;;;;;;;;5061248;28;20420;-80
2020/12/04 10:14:48;;;;;;;31.60;25.17;;;;;;;;;;5059905;28;20379;-80
2020/12/04 10:17:14;;;;;;;32.63;25.60;;;;;;;;;;5060639;28;20445;-80
2020/12/04 10:19:40;;;;;;;28.90;24.25;;;;;;;;;;5057297;28;20440;-80
2020/12/04 10:22:06;;;;;;;29.52;24.40;;;;;;;;;;5057573;28;20868;-80
2020/12/04 10:24:32;;;;;;;30.67;25.02;;;;;;;;;;5057292;28;20770;-81
2020/12/04 10:26:58;;;;;;;27.63;24.10;;;;;;;;;;5059007;28;20459;-81
2020/12/04 10:29:24;;;;;;;27.42;23.38;;;;;;;;;;5059462;28;20860;-80
2020/12/04 10:31:50;;;;;;;29.85;24.77;;;;;;;;;;5057490;28;20364;-81
2020/12/04 10:34:17;;;;;;;30.05;24.98;;;;;;;;;;5041869;28;20394;-81
2020/12/04 10:36:43;;;;;;;30.05;24.92;;;;;;;;;;5057982;28;20475;-81
2020/12/04 10:39:10;;;;;;;27.55;24.10;;;;;;;;;;5041792;28;20378;-81
2020/12/04 10:41:37;;;;;;;33.90;24.70;;;;;;;;;;5061524;28;20452;-80
2020/12/04 10:44:04;;;;;;;33.63;24.67;;;;;;;;;;5059851;28;20394;-80
2020/12/04 10:46:31;;;;;;;28.42;23.63;;;;;;;;;;5060463;28;20869;-80
2020/12/04 10:48:57;;;;;;;27.70;23.75;;;;;;;;;;5058981;28;20398;-81
2020/12/04 10:51:23;;;;;;;27.23;24.13;;;;;;;;;;5060806;28;20358;-81
2020/12/04 10:53:50;;;;;;;28.52;23.00;;;;;;;;;;5057907;28;20443;-81
2020/12/04 10:56:23;;;;;;;27.52;23.73;;;;;;;;;;5059112;28;20381;-80
2020/12/04 10:58:49;;;;;;;29.80;24.05;;;;;;;;;;5058698;28;20371;-81
2020/12/04 11:01:25;;;;;;;28.13;24.85;;;;;;;;;;5060708;28;20367;-80
2020/12/04 11:06:21;;;;;;;30.35;24.90;;;;;;;;;;5059501;28;20415;-80
2020/12/04 11:08:47;;;;;;;26.20;23.13;;;;;;;;;;5056934;28;20395;-78
2020/12/04 11:11:13;;;;;;;27.85;23.75;;;;;;;;;;5041154;28;20377;-81
2020/12/04 11:13:39;;;;;;;27.00;23.98;;;;;;;;;;5058834;28;20364;-79
2020/12/04 11:16:05;;;;;;;28.40;23.98;;;;;;;;;;5059263;28;20404;-81
2020/12/04 11:18:31;;;;;;;25.95;22.92;;;;;;;;;;5059970;28;22150;-80
2020/12/04 11:20:57;;;;;;;27.08;22.90;;;;;;;;;;5059969;28;20840;-78
2020/12/04 11:23:23;;;;;;;25.40;22.70;;;;;;;;;;5058441;28;20452;-81
2020/12/04 11:25:49;;;;;;;28.80;24.10;;;;;;;;;;5059111;28;20368;-81
2020/12/04 11:28:15;;;;;;;30.83;23.58;;;;;;;;;;5059090;28;20759;-79
2020/12/04 11:30:41;;;;;;;33.63;23.80;;;;;;;;;;5059249;28;20509;-80
2020/12/04 11:33:07;;;;;;;29.70;24.00;;;;;;;;;;5061200;28;20748;-78
2020/12/04 11:35:33;;;;;;;27.00;23.40;;;;;;;;;;5061153;28;20392;-80
2020/12/04 11:37:59;;;;;;;27.92;24.30;;;;;;;;;;5063503;28;20391;-80
2020/12/04 11:40:26;;;;;;;27.85;23.90;;;;;;;;;;5060396;28;20367;-80
2020/12/04 11:42:52;;;;;;;27.50;23.95;;;;;;;;;;5062331;28;20757;-80
2020/12/04 11:45:18;;;;;;;27.23;23.15;;;;;;;;;;5063919;28;20399;-81
2020/12/04 11:47:45;;;;;;;26.67;22.57;;;;;;;;;;5062104;28;20392;-80
2020/12/04 11:50:13;;;;;;;30.00;23.13;;;;;;;;;;5062596;28;20445;-80
2020/12/04 11:52:39;;;;;;;26.77;22.60;;;;;;;;;;5062249;28;20368;-80
2020/12/04 11:55:06;;;;;;;25.75;22.70;;;;;;;;;;5062070;28;20387;-80
2020/12/04 11:57:32;;;;;;;26.45;23.60;;;;;;;;;;5063400;28;20364;-80
2020/12/04 11:59:59;;;;;;;27.17;23.90;;;;;;;;;;5063718;28;20370;-80
2020/12/04 12:02:25;;;;;;;27.27;22.70;;;;;;;;;;5041575;28;21014;-81
2020/12/04 12:04:51;;;;;;;28.98;22.67;;;;;;;;;;5060651;28;20846;-81
2020/12/04 12:07:17;;;;;;;25.83;23.03;;;;;;;;;;5042129;28;20409;-84
2020/12/04 12:09:43;;;;;;;28.45;23.95;;;;;;;;;;5060566;28;20734;-82
2020/12/04 12:12:09;;;;;;;27.55;23.88;;;;;;;;;;5063506;28;20364;-81
2020/12/04 12:14:35;;;;;;;26.23;22.40;;;;;;;;;;5064020;28;20367;-81
2020/12/04 12:17:01;;;;;;;25.85;22.23;;;;;;;;;;5061091;28;20360;-81
2020/12/04 12:19:27;;;;;;;26.80;22.33;;;;;;;;;;5061005;28;20354;-81
2020/12/04 12:21:55;;;;;;;26.85;23.35;;;;;;;;;;5062801;28;20366;-82
2020/12/04 12:24:21;;;;;;;25.43;22.70;;;;;;;;;;5062931;28;20941;-81
2020/12/04 12:26:48;;;;;;;27.27;22.80;;;;;;;;;;5061169;28;20433;-81
2020/12/04 12:29:14;;;;;;;27.38;23.45;;;;;;;;;;5059738;28;20358;-83
2020/12/04 12:31:40;;;;;;;26.45;23.30;;;;;;;;;;5062799;28;20354;-81
2020/12/04 12:34:06;;;;;;;29.42;23.52;;;;;;;;;;5060872;28;20360;-82
2020/12/04 12:36:32;;;;;;;34.78;24.88;;;;;;;;;;5060570;28;20843;-81
2020/12/04 12:38:58;;;;;;;25.77;22.33;;;;;;;;;;5059422;28;20414;-82
2020/12/04 12:41:24;;;;;;;27.17;22.50;;;;;;;;;;5062177;28;20711;-82
2020/12/04 12:43:50;;;;;;;29.40;23.52;;;;;;;;;;5060113;28;20390;-82
2020/12/04 12:46:16;;;;;;;27.70;24.08;;;;;;;;;;5060273;28;20946;-81
2020/12/04 12:48:42;;;;;;;27.50;23.20;;;;;;;;;;5061843;28;20361;-80
2020/12/04 12:51:09;;;;;;;26.67;22.48;;;;;;;;;;5042857;28;20377;-82
2020/12/04 12:53:35;;;;;;;26.80;23.30;;;;;;;;;;5060200;28;20394;-82
2020/12/04 12:56:01;;;;;;;27.95;23.50;;;;;;;;;;5061971;28;20442;-82
2020/12/04 12:58:27;;;;;;;28.30;23.85;;;;;;;;;;5060563;28;20364;-81
2020/12/04 13:00:53;;;;;;;27.90;23.83;;;;;;;;;;5059104;28;20907;-81
2020/12/04 13:03:19;;;;;;;30.20;24.00;;;;;;;;;;5059440;28;20407;-81
2020/12/04 13:05:45;;;;;;;31.38;23.40;;;;;;;;;;5060113;28;20368;-81
2020/12/04 13:08:12;;;;;;;29.10;24.10;;;;;;;;;;5059500;28;20722;-81
2020/12/04 13:10:38;;;;;;;26.35;22.98;;;;;;;;;;5059137;28;20438;-83
2020/12/04 13:13:05;;;;;;;31.95;22.95;;;;;;;;;;5062301;28;20880;-82
2020/12/04 13:15:31;;;;;;;28.20;24.35;;;;;;;;;;5060770;28;20362;-81
2020/12/04 13:17:58;;;;;;;27.27;23.80;;;;;;;;;;5043867;28;20778;-80
2020/12/04 13:20:24;;;;;;;27.60;22.92;;;;;;;;;;5059255;28;20485;-82
2020/12/04 13:25:35;;;;;;;29.20;22.47;;;;;;;;;;5061050;28;20385;-80
2020/12/04 13:28:01;;;;;;;26.10;22.20;;;;;;;;;;5056806;28;20401;-80
2020/12/04 13:30:28;;;;;;;27.95;22.30;;;;;;;;;;5059188;28;20362;-80
2020/12/04 13:32:55;;;;;;;26.17;22.65;;;;;;;;;;5061287;28;20392;-80
2020/12/04 13:35:21;;;;;;;25.70;22.90;;;;;;;;;;5035925;28;20384;-81
2020/12/04 13:37:47;;;;;;;27.33;21.88;;;;;;;;;;5057734;28;20389;-80
2020/12/04 13:40:13;;;;;;;25.95;21.85;;;;;;;;;;5055260;28;20373;-82
2020/12/04 13:42:39;;;;;;;26.55;22.23;;;;;;;;;;5060657;28;20463;-80
2020/12/04 13:45:06;;;;;;;25.00;22.20;;;;;;;;;;5059391;28;20362;-81
2020/12/04 13:47:32;;;;;;;24.65;21.83;;;;;;;;;;5058358;28;20368;-82
2020/12/04 13:49:58;;;;;;;26.00;22.90;;;;;;;;;;5060177;28;20437;-81
2020/12/04 13:52:24;;;;;;;27.75;22.27;;;;;;;;;;5061083;28;20503;-87
2020/12/04 13:54:50;;;;;;;26.48;23.33;;;;;;;;;;5062130;28;20947;-81
2020/12/04 13:57:16;;;;;;;27.20;22.83;;;;;;;;;;5057275;28;20444;-81
2020/12/04 13:59:42;;;;;;;28.90;22.58;;;;;;;;;;5059773;28;20366;-81
2020/12/04 14:02:11;;;;;;;25.95;23.15;;;;;;;;;;5036396;28;20495;-80
2020/12/04 14:04:39;;;;;;;25.52;21.73;;;;;;;;;;5057963;28;20379;-81
2020/12/04 14:07:08;;;;;;;26.98;22.45;;;;;;;;;;5043190;28;20861;-81
2020/12/04 14:09:34;;;;;;;24.17;21.33;;;;;;;;;;5060243;28;20371;-81
2020/12/04 14:12:02;;;;;;;27.65;20.70;;;;;;;;;;5060764;28;20361;-80
2020/12/04 14:14:28;;;;;;;24.70;20.45;;;;;;;;;;5060544;28;20853;-80
2020/12/04 14:16:54;;;;;;;25.27;21.92;;;;;;;;;;5057818;28;20354;-81
2020/12/04 14:19:20;;;;;;;23.95;21.35;;;;;;;;;;5061150;28;20483;-81
2020/12/04 14:21:47;;;;;;;23.02;20.52;;;;;;;;;;5057866;28;21146;-81
2020/12/04 14:24:13;;;;;;;26.52;21.48;;;;;;;;;;5038017;28;20522;-81